createdAt,value
2019-02-14T00:00:20.299Z,8.20
2019-02-14T00:02:48.845Z,8.40
2019-02-14T00:05:17.333Z,8.30
2019-02-14T00:07:45.845Z,8.20
2019-02-14T00:10:14.397Z,8.20
2019-02-14T00:12:42.906Z,8.00
2019-02-14T00:15:12.973Z,8.10
2019-02-14T00:17:41.561Z,8.10
2019-02-14T00:20:10.669Z,7.90
2019-02-14T00:22:39.262Z,8.10
2019-02-14T00:25:08.017Z,8.20
2019-02-14T00:27:56.042Z,8.30
2019-02-14T00:30:24.589Z,8.30
2019-02-14T00:32:53.099Z,8.30
2019-02-14T00:35:25.166Z,8.40
2019-02-14T00:37:51.883Z,8.50
2019-02-14T00:40:20.533Z,8.40
2019-02-14T00:42:49.049Z,8.30
2019-02-14T00:45:17.601Z,8.30
2019-02-14T00:47:46.257Z,8.20
2019-02-14T00:50:14.806Z,8.30
2019-02-14T00:52:43.315Z,8.30
2019-02-14T00:55:11.862Z,8.30
2019-02-14T00:57:40.437Z,8.30
2019-02-14T01:00:10.607Z,8.30
2019-02-14T01:02:39.187Z,8.30
2019-02-14T01:05:08.213Z,8.40
2019-02-14T01:07:36.806Z,8.40
2019-02-14T01:10:06.594Z,8.30
2019-02-14T01:12:35.182Z,8.30
2019-02-14T01:15:04.977Z,8.30
2019-02-14T01:17:33.486Z,8.40
2019-02-14T01:20:02.050Z,8.40
2019-02-14T01:22:30.625Z,8.50
2019-02-14T01:24:59.174Z,8.50
2019-02-14T01:27:27.645Z,8.40
2019-02-14T01:29:56.229Z,8.50
2019-02-14T01:32:25.284Z,8.40
2019-02-14T01:34:53.871Z,8.30
2019-02-14T01:37:22.419Z,8.30
2019-02-14T01:39:50.997Z,8.20
2019-02-14T01:42:19.469Z,8.20
2019-02-14T01:44:48.049Z,8.30
2019-02-14T01:47:16.533Z,8.30
2019-02-14T01:49:45.124Z,8.30
2019-02-14T01:52:13.673Z,8.20
2019-02-14T01:54:42.261Z,8.10
2019-02-14T01:57:10.809Z,8.20
2019-02-14T01:59:39.394Z,8.00
2019-02-14T02:02:07.957Z,8.00
2019-02-14T02:04:36.541Z,8.10
2019-02-14T02:07:05.861Z,8.20
2019-02-14T02:09:34.437Z,8.20
2019-02-14T02:12:03.061Z,8.10
2019-02-14T02:14:31.571Z,7.90
2019-02-14T02:17:00.128Z,8.10
2019-02-14T02:19:28.713Z,8.20
2019-02-14T02:21:57.270Z,8.30
2019-02-14T02:24:25.865Z,8.20
2019-02-14T02:26:54.515Z,8.20
2019-02-14T02:29:23.097Z,8.20
2019-02-14T02:31:51.577Z,8.30
2019-02-14T02:34:20.161Z,8.20
2019-02-14T02:36:48.644Z,8.20
2019-02-14T02:39:17.221Z,8.30
2019-02-14T02:41:45.796Z,8.20
2019-02-14T02:44:14.368Z,8.20
2019-02-14T02:46:42.913Z,8.40
2019-02-14T02:49:11.495Z,8.20
2019-02-14T02:51:40.037Z,8.10
2019-02-14T02:54:08.617Z,8.10
2019-02-14T02:56:37.169Z,8.10
2019-02-14T02:59:05.753Z,8.10
2019-02-14T03:01:34.314Z,8.00
2019-02-14T03:04:02.857Z,7.90
2019-02-14T03:06:31.445Z,8.00
2019-02-14T03:08:59.994Z,8.10
2019-02-14T03:11:28.505Z,8.20
2019-02-14T03:13:57.058Z,8.00
2019-02-14T03:16:25.566Z,8.10
2019-02-14T03:18:54.043Z,8.00
2019-02-14T03:21:22.613Z,8.10
2019-02-14T03:23:51.097Z,7.90
2019-02-14T03:26:19.683Z,7.90
2019-02-14T03:28:48.243Z,8.00
2019-02-14T03:31:16.822Z,8.00
2019-02-14T03:33:45.444Z,7.90
2019-02-14T03:36:19.172Z,7.90
2019-02-14T03:38:44.226Z,7.90
2019-02-14T03:41:12.809Z,7.90
2019-02-14T03:43:41.361Z,7.90
2019-02-14T03:46:09.946Z,7.90
2019-02-14T03:48:38.574Z,7.90
2019-02-14T03:51:07.154Z,7.90
2019-02-14T03:53:35.710Z,7.90
2019-02-14T03:56:04.289Z,7.80
2019-02-14T03:58:32.843Z,7.80
2019-02-14T04:01:01.417Z,7.70
2019-02-14T04:03:30.093Z,7.70
2019-02-14T04:05:58.673Z,7.70
2019-02-14T04:08:27.145Z,7.60
2019-02-14T04:10:55.752Z,7.70
2019-02-14T04:13:24.301Z,7.70
2019-02-14T04:15:52.805Z,7.60
2019-02-14T04:18:21.349Z,7.60
2019-02-14T04:20:49.933Z,7.50
2019-02-14T04:23:18.410Z,7.60
2019-02-14T04:25:46.937Z,7.60
2019-02-14T04:28:15.411Z,7.50
2019-02-14T04:30:43.989Z,7.50
2019-02-14T04:33:12.464Z,7.60
2019-02-14T04:35:41.045Z,7.50
2019-02-14T04:38:09.621Z,7.60
2019-02-14T04:40:38.093Z,7.50
2019-02-14T04:43:06.678Z,7.70
2019-02-14T04:45:35.233Z,7.80
2019-02-14T04:48:03.982Z,7.90
2019-02-14T04:50:32.534Z,7.80
2019-02-14T04:53:01.120Z,7.80
2019-02-14T04:55:29.679Z,7.70
2019-02-14T04:57:58.261Z,7.60
2019-02-14T05:00:26.957Z,7.50
2019-02-14T05:02:55.560Z,7.50
2019-02-14T05:05:24.106Z,7.50
2019-02-14T05:07:52.659Z,7.50
2019-02-14T05:10:21.237Z,7.40
2019-02-14T05:12:49.807Z,7.50
2019-02-14T05:15:18.373Z,7.60
2019-02-14T05:17:46.929Z,7.60
2019-02-14T05:20:15.511Z,7.70
2019-02-14T05:22:44.053Z,7.70
2019-02-14T05:25:12.731Z,7.70
2019-02-14T05:27:41.282Z,7.60
2019-02-14T05:30:15.274Z,7.50
2019-02-14T05:32:43.878Z,7.50
2019-02-14T05:35:12.426Z,7.40
2019-02-14T05:37:41.010Z,7.30
2019-02-14T05:40:10.993Z,7.50
2019-02-14T05:42:39.574Z,7.50
2019-02-14T05:45:10.961Z,7.40
2019-02-14T05:47:39.534Z,7.30
2019-02-14T05:50:12.865Z,7.30
2019-02-14T05:52:41.442Z,7.20
2019-02-14T05:55:13.025Z,7.30
2019-02-14T05:57:41.691Z,7.40
2019-02-14T06:00:13.101Z,7.30
2019-02-14T06:02:41.682Z,7.40
2019-02-14T06:05:10.369Z,7.30
2019-02-14T06:07:38.918Z,7.30
2019-02-14T06:10:09.709Z,7.30
2019-02-14T06:12:38.285Z,7.40
2019-02-14T06:15:11.583Z,7.30
2019-02-14T06:17:40.174Z,7.20
2019-02-14T06:20:12.702Z,7.10
2019-02-14T06:22:41.255Z,7.40
2019-02-14T06:25:13.597Z,7.40
2019-02-14T06:27:42.150Z,7.50
2019-02-14T06:30:13.172Z,7.30
2019-02-14T06:32:41.719Z,7.40
2019-02-14T06:35:11.437Z,7.40
2019-02-14T06:37:40.054Z,7.50
2019-02-14T06:40:10.972Z,7.40
2019-02-14T06:42:39.522Z,7.40
2019-02-14T06:45:11.318Z,7.40
2019-02-14T06:47:39.866Z,7.40
2019-02-14T06:50:09.388Z,7.30
2019-02-14T06:52:37.939Z,7.10
2019-02-14T06:55:07.462Z,7.20
2019-02-14T06:57:36.013Z,7.10
2019-02-14T07:00:09.309Z,7.30
2019-02-14T07:02:37.870Z,7.20
2019-02-14T07:05:08.685Z,7.30
2019-02-14T07:07:37.169Z,7.30
2019-02-14T07:10:08.593Z,7.20
2019-02-14T07:12:37.153Z,7.20
2019-02-14T07:15:08.867Z,7.20
2019-02-14T07:17:37.412Z,7.30
2019-02-14T07:20:09.147Z,7.40
2019-02-14T07:22:38.044Z,7.50
2019-02-14T07:25:09.270Z,7.50
2019-02-14T07:27:37.818Z,7.50
2019-02-14T07:30:24.113Z,7.60
2019-02-14T07:32:52.666Z,7.60
2019-02-14T07:35:21.388Z,7.70
2019-02-14T07:37:49.951Z,7.70
2019-02-14T07:40:18.534Z,7.80
2019-02-14T07:42:47.090Z,7.90
2019-02-14T07:45:18.838Z,7.90
2019-02-14T07:47:47.402Z,8.10
2019-02-14T07:50:16.110Z,8.00
2019-02-14T07:52:44.670Z,8.10
2019-02-14T07:55:14.884Z,8.20
2019-02-14T07:57:43.970Z,8.20
2019-02-14T08:00:17.234Z,8.10
2019-02-14T08:02:45.785Z,8.00
2019-02-14T08:05:14.517Z,7.90
2019-02-14T08:07:43.075Z,8.00
2019-02-14T08:10:16.370Z,8.30
2019-02-14T08:12:44.943Z,8.40
2019-02-14T08:15:14.665Z,8.60
2019-02-14T08:17:43.239Z,8.60
2019-02-14T08:20:14.902Z,8.40
2019-02-14T08:22:43.445Z,8.60
2019-02-14T08:25:13.494Z,8.50
2019-02-14T08:27:42.043Z,8.30
2019-02-14T08:30:13.633Z,8.20
2019-02-14T08:32:42.178Z,8.10
2019-02-14T08:35:10.797Z,8.50
2019-02-14T08:37:45.604Z,8.40
2019-02-14T08:40:15.534Z,8.30
2019-02-14T08:42:44.037Z,8.50
2019-02-14T08:45:12.753Z,8.80
2019-02-14T08:47:41.334Z,9.10
2019-02-14T08:50:10.659Z,8.90
2019-02-14T08:52:39.238Z,8.80
2019-02-14T08:55:10.037Z,8.90
2019-02-14T08:57:38.837Z,9.00
2019-02-14T09:00:14.777Z,9.20
2019-02-14T09:02:43.465Z,9.10
2019-02-14T09:05:12.108Z,9.00
2019-02-14T09:07:40.674Z,8.60
2019-02-14T09:10:16.374Z,8.70
2019-02-14T09:12:44.946Z,9.00
2019-02-14T09:15:14.641Z,9.00
2019-02-14T09:17:43.501Z,9.20
2019-02-14T09:20:20.150Z,9.20
2019-02-14T09:22:48.722Z,9.70
2019-02-14T09:25:17.291Z,9.80
2019-02-14T09:27:45.882Z,9.90
2019-02-14T09:30:17.429Z,9.70
2019-02-14T09:32:46.079Z,9.80
2019-02-14T09:35:14.634Z,10.00
2019-02-14T09:37:43.223Z,10.10
2019-02-14T09:40:16.954Z,10.00
2019-02-14T09:42:45.551Z,10.50
2019-02-14T09:45:14.741Z,10.20
2019-02-14T09:47:43.412Z,10.40
2019-02-14T09:50:13.497Z,10.50
2019-02-14T09:52:42.327Z,11.30
2019-02-14T09:55:12.426Z,11.90
2019-02-14T09:57:41.083Z,11.70
2019-02-14T10:00:14.999Z,12.10
2019-02-14T10:02:43.578Z,12.80
2019-02-14T10:05:12.223Z,13.10
2019-02-14T10:07:40.815Z,13.10
2019-02-14T10:10:12.254Z,13.10
2019-02-14T10:12:40.844Z,13.20
2019-02-14T10:15:10.428Z,14.30
2019-02-14T10:17:39.085Z,15.20
2019-02-14T10:20:13.380Z,17.10
2019-02-14T10:22:42.050Z,18.40
2019-02-14T10:25:11.350Z,17.00
2019-02-14T10:27:39.938Z,18.60
2019-02-14T10:30:14.334Z,18.80
2019-02-14T10:32:42.918Z,19.70
2019-02-14T10:35:11.470Z,20.70
2019-02-14T10:37:40.101Z,21.60
2019-02-14T10:40:11.290Z,20.50
2019-02-14T10:42:39.934Z,19.20
2019-02-14T10:45:11.439Z,19.50
2019-02-14T10:47:40.018Z,19.70
2019-02-14T10:50:10.522Z,21.00
2019-02-14T10:52:39.143Z,20.90
2019-02-14T10:55:10.339Z,20.00
2019-02-14T10:57:38.889Z,21.00
2019-02-14T11:00:22.453Z,21.90
2019-02-14T11:02:51.210Z,22.50
2019-02-14T11:05:20.200Z,22.00
2019-02-14T11:07:49.022Z,21.00
2019-02-14T11:10:17.943Z,20.90
2019-02-14T11:12:46.566Z,22.10
2019-02-14T11:15:21.290Z,22.90
2019-02-14T11:17:49.914Z,21.40
2019-02-14T11:20:18.580Z,19.10
2019-02-14T11:22:48.756Z,20.70
2019-02-14T11:25:32.363Z,22.90
2019-02-14T11:28:00.918Z,23.60
2019-02-14T11:30:29.582Z,22.20
2019-02-14T11:32:58.131Z,23.40
2019-02-14T11:35:26.747Z,24.00
2019-02-14T11:37:55.313Z,23.20
2019-02-14T11:40:23.898Z,23.30
2019-02-14T11:42:52.383Z,22.70
2019-02-14T11:45:22.598Z,22.90
2019-02-14T11:47:51.165Z,23.00
2019-02-14T11:50:19.762Z,22.60
2019-02-14T11:52:48.374Z,22.90
2019-02-14T11:55:16.958Z,24.30
2019-02-14T11:57:45.510Z,23.50
2019-02-14T12:00:23.147Z,24.70
2019-02-14T12:02:55.822Z,24.70
2019-02-14T12:05:21.992Z,25.30
2019-02-14T12:07:50.546Z,23.30
2019-02-14T12:10:19.204Z,22.20
2019-02-14T12:12:47.835Z,21.50
2019-02-14T12:15:16.594Z,22.80
2019-02-14T12:17:45.080Z,23.00
2019-02-14T12:20:15.498Z,23.40
2019-02-14T12:22:46.770Z,22.50
2019-02-14T12:25:22.738Z,23.30
2019-02-14T12:27:51.294Z,21.50
2019-02-14T12:30:19.972Z,22.10
2019-02-14T12:32:48.586Z,23.90
2019-02-14T12:35:17.180Z,23.80
2019-02-14T12:37:45.734Z,23.90
2019-02-14T12:40:14.723Z,22.30
2019-02-14T12:42:43.280Z,22.80
2019-02-14T12:45:25.761Z,23.10
2019-02-14T12:47:53.554Z,23.80
2019-02-14T12:50:22.142Z,24.60
2019-02-14T12:52:50.798Z,23.10
2019-02-14T12:55:19.454Z,22.70
2019-02-14T12:57:48.005Z,23.40
2019-02-14T13:00:23.910Z,23.80
2019-02-14T13:02:52.502Z,22.60
2019-02-14T13:05:21.078Z,22.80
2019-02-14T13:07:49.635Z,23.30
2019-02-14T13:10:19.126Z,24.50
2019-02-14T13:12:47.683Z,23.40
2019-02-14T13:15:22.138Z,22.20
2019-02-14T13:17:50.642Z,22.20
2019-02-14T13:20:19.274Z,23.80
2019-02-14T13:22:47.835Z,24.90
2019-02-14T13:25:16.678Z,24.50
2019-02-14T13:27:45.246Z,24.50
2019-02-14T13:30:25.159Z,25.50
2019-02-14T13:32:53.853Z,24.90
2019-02-14T13:35:22.442Z,26.50
2019-02-14T13:37:50.998Z,25.80
2019-02-14T13:40:19.650Z,25.00
2019-02-14T13:42:48.209Z,25.10
2019-02-14T13:45:22.670Z,24.00
2019-02-14T13:47:51.250Z,23.70
2019-02-14T13:50:19.881Z,23.60
2019-02-14T13:52:48.429Z,24.50
2019-02-14T13:55:17.006Z,24.60
2019-02-14T13:57:45.586Z,24.80
2019-02-14T14:00:22.983Z,26.70
2019-02-14T14:02:51.542Z,27.00
2019-02-14T14:05:20.123Z,27.70
2019-02-14T14:07:48.678Z,25.60
2019-02-14T14:10:17.275Z,24.20
2019-02-14T14:12:45.819Z,24.30
2019-02-14T14:15:14.574Z,26.00
2019-02-14T14:17:43.194Z,26.00
2019-02-14T14:20:11.942Z,25.40
2019-02-14T14:22:40.422Z,24.30
2019-02-14T14:25:11.709Z,25.00
2019-02-14T14:27:40.337Z,24.80
2019-02-14T14:30:11.154Z,26.20
2019-02-14T14:32:39.706Z,26.60
2019-02-14T14:35:10.979Z,27.00
2019-02-14T14:37:40.294Z,26.60
2019-02-14T14:40:11.957Z,26.10
2019-02-14T14:42:53.851Z,27.30
2019-02-14T14:45:35.938Z,26.50
2019-02-14T14:48:04.571Z,24.30
2019-02-14T14:50:33.154Z,25.70
2019-02-14T14:53:01.733Z,27.30
2019-02-14T14:55:30.318Z,24.00
2019-02-14T14:57:58.799Z,24.50
2019-02-14T15:00:27.382Z,25.30
2019-02-14T15:02:55.960Z,25.90
2019-02-14T15:05:24.540Z,25.50
2019-02-14T15:07:53.107Z,25.90
2019-02-14T15:10:21.755Z,24.90
2019-02-14T15:12:50.318Z,22.80
2019-02-14T15:15:18.902Z,22.10
2019-02-14T15:17:47.455Z,21.10
2019-02-14T15:20:16.038Z,20.00
2019-02-14T15:22:44.600Z,19.30
2019-02-14T15:25:13.181Z,18.70
2019-02-14T15:27:41.665Z,18.40
2019-02-14T15:30:10.311Z,17.80
2019-02-14T15:32:38.863Z,17.80
2019-02-14T15:35:08.798Z,17.70
2019-02-14T15:37:37.418Z,17.30
2019-02-14T15:40:09.604Z,16.80
2019-02-14T15:42:38.512Z,16.90
2019-02-14T15:45:08.130Z,16.50
2019-02-14T15:47:36.700Z,15.80
2019-02-14T15:50:08.974Z,16.00
2019-02-14T15:52:37.792Z,16.10
2019-02-14T15:55:07.590Z,16.20
2019-02-14T15:57:36.179Z,15.40
2019-02-14T16:00:10.916Z,15.20
2019-02-14T16:02:39.566Z,14.60
2019-02-14T16:05:08.655Z,14.70
2019-02-14T16:07:38.994Z,14.30
2019-02-14T16:10:17.611Z,14.80
2019-02-14T16:12:41.073Z,14.90
2019-02-14T16:15:10.067Z,14.40
2019-02-14T16:17:38.650Z,14.40
2019-02-14T16:20:08.649Z,14.30
2019-02-14T16:22:37.230Z,14.20
2019-02-14T16:25:07.421Z,14.30
2019-02-14T16:27:36.011Z,14.10
2019-02-14T16:30:07.711Z,14.10
2019-02-14T16:32:36.743Z,14.20
2019-02-14T16:35:06.729Z,14.10
2019-02-14T16:37:35.331Z,14.20
2019-02-14T16:40:04.830Z,14.00
2019-02-14T16:42:33.404Z,14.10
2019-02-14T16:45:01.980Z,13.90
2019-02-14T16:47:30.558Z,13.80
2019-02-14T16:49:59.115Z,13.80
2019-02-14T16:52:27.713Z,13.60
2019-02-14T16:54:56.273Z,13.60
2019-02-14T16:57:24.858Z,13.50
2019-02-14T16:59:53.364Z,13.50
2019-02-14T17:02:21.949Z,13.40
2019-02-14T17:04:50.439Z,13.30
2019-02-14T17:07:19.015Z,13.20
2019-02-14T17:09:47.503Z,13.30
2019-02-14T17:12:16.095Z,13.30
2019-02-14T17:14:44.589Z,13.20
2019-02-14T17:17:13.185Z,13.10
2019-02-14T17:19:41.685Z,13.00
2019-02-14T17:22:10.276Z,12.80
2019-02-14T17:24:38.829Z,12.80
2019-02-14T17:27:07.413Z,12.90
2019-02-14T17:29:35.969Z,12.60
2019-02-14T17:32:04.567Z,12.70
2019-02-14T17:34:33.119Z,12.50
2019-02-14T17:37:01.625Z,12.50
2019-02-14T17:39:30.107Z,12.30
2019-02-14T17:41:58.686Z,12.10
2019-02-14T17:44:27.242Z,12.10
2019-02-14T17:46:55.845Z,12.00
2019-02-14T17:49:24.410Z,11.80
2019-02-14T17:51:53.003Z,11.90
2019-02-14T17:54:21.561Z,11.70
2019-02-14T17:56:50.197Z,11.50
2019-02-14T17:59:18.761Z,11.40
2019-02-14T18:01:47.352Z,11.40
2019-02-14T18:04:15.919Z,11.20
2019-02-14T18:06:44.493Z,11.20
2019-02-14T18:09:12.987Z,11.00
2019-02-14T18:11:41.579Z,11.00
2019-02-14T18:14:10.139Z,11.10
2019-02-14T18:16:38.717Z,11.00
2019-02-14T18:19:07.717Z,10.90
2019-02-14T18:21:36.375Z,10.80
2019-02-14T18:24:05.179Z,10.80
2019-02-14T18:26:33.769Z,10.60
2019-02-14T18:29:02.319Z,10.50
2019-02-14T18:31:30.971Z,10.50
2019-02-14T18:33:59.455Z,10.30
2019-02-14T18:36:27.959Z,10.50
2019-02-14T18:38:56.519Z,10.20
2019-02-14T18:41:25.453Z,10.20
2019-02-14T18:43:54.067Z,10.10
2019-02-14T18:46:22.725Z,10.10
2019-02-14T18:48:51.279Z,10.00
2019-02-14T18:51:19.869Z,10.00
2019-02-14T18:53:48.419Z,10.00
2019-02-14T18:56:17.011Z,9.90
2019-02-14T18:58:45.573Z,9.70
2019-02-14T19:01:14.155Z,9.70
2019-02-14T19:03:42.713Z,9.60
2019-02-14T19:06:11.343Z,9.70
2019-02-14T19:08:39.889Z,9.60
2019-02-14T19:11:15.229Z,9.50
2019-02-14T19:13:38.661Z,9.60
2019-02-14T19:16:07.248Z,9.60
2019-02-14T19:18:35.806Z,9.50
2019-02-14T19:21:04.354Z,9.50
2019-02-14T19:23:33.011Z,9.30
2019-02-14T19:26:01.563Z,9.30
2019-02-14T19:28:30.161Z,9.30
2019-02-14T19:30:58.715Z,9.40
2019-02-14T19:33:27.387Z,9.40
2019-02-14T19:35:55.867Z,9.30
2019-02-14T19:38:24.452Z,9.20
2019-02-14T19:40:53.001Z,9.20
2019-02-14T19:43:21.522Z,9.20
2019-02-14T19:45:50.071Z,9.00
2019-02-14T19:48:18.645Z,8.90
2019-02-14T19:50:47.239Z,8.80
2019-02-14T19:53:15.781Z,9.00
2019-02-14T19:55:44.324Z,8.90
2019-02-14T19:58:12.831Z,8.90
2019-02-14T20:00:41.464Z,8.90
2019-02-14T20:03:10.045Z,8.70
2019-02-14T20:05:38.625Z,8.60
2019-02-14T20:08:07.151Z,8.60
2019-02-14T20:10:35.695Z,8.60
2019-02-14T20:13:04.282Z,8.50
2019-02-14T20:15:37.047Z,8.40
2019-02-14T20:18:03.145Z,8.60
2019-02-14T20:20:31.665Z,8.30
2019-02-14T20:23:00.262Z,8.40
2019-02-14T20:25:29.773Z,8.30
2019-02-14T20:27:58.284Z,8.20
2019-02-14T20:30:26.844Z,8.20
2019-02-14T20:33:04.452Z,8.30
2019-02-14T20:35:25.627Z,8.20
2019-02-14T20:37:54.247Z,8.10
2019-02-14T20:40:22.788Z,8.00
2019-02-14T20:42:51.306Z,8.00
2019-02-14T20:45:19.857Z,8.10
2019-02-14T20:47:48.465Z,8.10
2019-02-14T20:50:17.144Z,8.20
2019-02-14T20:52:45.741Z,8.10
2019-02-14T20:55:17.511Z,8.10
2019-02-14T20:57:46.151Z,8.10
2019-02-14T21:00:17.385Z,8.00
2019-02-14T21:02:45.968Z,8.10
2019-02-14T21:05:14.523Z,7.90
2019-02-14T21:07:43.116Z,7.80
2019-02-14T21:10:11.734Z,7.70
2019-02-14T21:12:40.322Z,7.60
2019-02-14T21:15:09.598Z,7.50
2019-02-14T21:17:38.115Z,7.20
2019-02-14T21:20:09.773Z,7.40
2019-02-14T21:22:38.293Z,7.60
2019-02-14T21:25:08.655Z,7.70
2019-02-14T21:27:37.289Z,7.40
2019-02-14T21:30:09.321Z,7.30
2019-02-14T21:32:37.906Z,7.10
2019-02-14T21:35:06.814Z,7.30
2019-02-14T21:37:35.398Z,7.30
2019-02-14T21:40:06.546Z,7.20
2019-02-14T21:42:35.129Z,7.10
2019-02-14T21:45:04.381Z,7.00
2019-02-14T21:47:32.966Z,7.00
2019-02-14T21:50:01.585Z,7.00
2019-02-14T21:52:30.290Z,7.00
2019-02-14T21:54:58.858Z,6.90
2019-02-14T21:57:27.582Z,6.80
2019-02-14T21:59:56.201Z,7.00
2019-02-14T22:02:24.787Z,7.00
2019-02-14T22:04:53.361Z,6.80
2019-02-14T22:07:21.943Z,6.80
2019-02-14T22:09:50.495Z,6.50
2019-02-14T22:12:38.762Z,6.60
2019-02-14T22:14:49.310Z,6.60
2019-02-14T22:17:18.949Z,6.50
2019-02-14T22:19:47.489Z,6.70
2019-02-14T22:22:16.117Z,6.40
2019-02-14T22:24:44.678Z,6.60
2019-02-14T22:27:13.257Z,6.80
2019-02-14T22:29:41.820Z,6.60
2019-02-14T22:32:10.405Z,6.50
2019-02-14T22:34:38.962Z,6.80
2019-02-14T22:37:07.527Z,6.80
2019-02-14T22:39:36.117Z,6.70
2019-02-14T22:42:04.675Z,6.60
2019-02-14T22:44:33.265Z,6.70
2019-02-14T22:47:01.837Z,6.60
2019-02-14T22:49:30.405Z,6.70
2019-02-14T22:51:58.957Z,6.50
2019-02-14T22:54:27.549Z,6.60
2019-02-14T22:56:56.098Z,6.40
2019-02-14T22:59:24.975Z,6.50
2019-02-14T23:01:53.667Z,6.70
2019-02-14T23:04:22.269Z,6.80
2019-02-14T23:06:50.801Z,6.70
2019-02-14T23:09:19.615Z,6.80
2019-02-14T23:11:48.161Z,6.40
2019-02-14T23:14:16.776Z,6.50
2019-02-14T23:16:45.325Z,6.40
2019-02-14T23:19:13.801Z,6.30
2019-02-14T23:21:42.284Z,6.20
2019-02-14T23:24:10.835Z,6.10
2019-02-14T23:26:39.293Z,6.10
2019-02-14T23:29:07.781Z,6.10
2019-02-14T23:31:36.245Z,6.10
2019-02-14T23:34:04.773Z,6.10
2019-02-14T23:36:33.253Z,6.30
2019-02-14T23:39:01.763Z,6.40
2019-02-14T23:41:30.317Z,6.50
2019-02-14T23:43:58.909Z,6.50
2019-02-14T23:46:27.465Z,6.50
2019-02-14T23:48:56.121Z,6.40
2019-02-14T23:51:24.670Z,6.20
2019-02-14T23:53:53.257Z,6.20
2019-02-14T23:56:21.809Z,6.10
2019-02-14T23:58:50.330Z,6.20
